sensor_id;sensor_type;location;lat;lon;timestamp;P1;durP1;ratioP1;P2;durP2;ratioP2
4278;SDS011;2153;47.744;10.580;2023-05-07T00:01:58;15.40;;;5.30;;
4278;SDS011;2153;47.744;10.580;2023-05-07T00:04:25;18.13;;;6.30;;
4278;SDS011;2153;47.744;10.580;2023-05-07T00:06:53;18.27;;;6.60;;
4278;SDS011;2153;47.744;10.580;2023-05-07T00:09:20;16.50;;;5.70;;
4278;SDS011;2153;47.744;10.580;2023-05-07T00:11:47;18.90;;;6.73;;
4278;SDS011;2153;47.744;10.580;2023-05-07T00:14:13;17.40;;;6.27;;
4278;SDS011;2153;47.744;10.580;2023-05-07T00:16:41;28.50;;;6.30;;
4278;SDS011;2153;47.744;10.580;2023-05-07T00:19:09;21.97;;;6.33;;
4278;SDS011;2153;47.744;10.580;2023-05-07T00:21:36;20.63;;;8.50;;
4278;SDS011;2153;47.744;10.580;2023-05-07T00:24:03;18.97;;;7.63;;
4278;SDS011;2153;47.744;10.580;2023-05-07T00:26:30;27.30;;;8.77;;
4278;SDS011;2153;47.744;10.580;2023-05-07T00:28:56;20.93;;;8.30;;
4278;SDS011;2153;47.744;10.580;2023-05-07T00:31:23;18.00;;;7.80;;
4278;SDS011;2153;47.744;10.580;2023-05-07T00:33:51;18.27;;;7.27;;
4278;SDS011;2153;47.744;10.580;2023-05-07T00:36:18;19.53;;;7.00;;
4278;SDS011;2153;47.744;10.580;2023-05-07T00:38:45;15.60;;;5.73;;
4278;SDS011;2153;47.744;10.580;2023-05-07T00:41:11;19.40;;;6.73;;
4278;SDS011;2153;47.744;10.580;2023-05-07T00:43:38;15.47;;;5.87;;
4278;SDS011;2153;47.744;10.580;2023-05-07T00:46:05;17.80;;;5.63;;
4278;SDS011;2153;47.744;10.580;2023-05-07T00:48:31;17.27;;;5.93;;
4278;SDS011;2153;47.744;10.580;2023-05-07T00:51:00;17.20;;;5.87;;
4278;SDS011;2153;47.744;10.580;2023-05-07T00:53:26;15.60;;;5.70;;
4278;SDS011;2153;47.744;10.580;2023-05-07T00:55:54;16.17;;;5.83;;
4278;SDS011;2153;47.744;10.580;2023-05-07T00:58:21;16.67;;;6.00;;
4278;SDS011;2153;47.744;10.580;2023-05-07T01:00:48;17.43;;;5.67;;
4278;SDS011;2153;47.744;10.580;2023-05-07T01:03:15;17.30;;;6.20;;
4278;SDS011;2153;47.744;10.580;2023-05-07T01:05:41;17.40;;;6.17;;
4278;SDS011;2153;47.744;10.580;2023-05-07T01:08:11;16.77;;;7.07;;
4278;SDS011;2153;47.744;10.580;2023-05-07T01:10:39;19.53;;;6.53;;
4278;SDS011;2153;47.744;10.580;2023-05-07T01:13:08;18.83;;;7.40;;
4278;SDS011;2153;47.744;10.580;2023-05-07T01:15:35;17.83;;;6.70;;
4278;SDS011;2153;47.744;10.580;2023-05-07T01:18:02;17.13;;;6.80;;
4278;SDS011;2153;47.744;10.580;2023-05-07T01:20:28;18.00;;;6.17;;
4278;SDS011;2153;47.744;10.580;2023-05-07T01:22:57;15.70;;;6.13;;
4278;SDS011;2153;47.744;10.580;2023-05-07T01:25:25;25.17;;;6.17;;
4278;SDS011;2153;47.744;10.580;2023-05-07T01:27:52;15.70;;;6.13;;
4278;SDS011;2153;47.744;10.580;2023-05-07T01:30:19;22.23;;;7.17;;
4278;SDS011;2153;47.744;10.580;2023-05-07T01:32:48;23.20;;;5.97;;
4278;SDS011;2153;47.744;10.580;2023-05-07T01:35:18;18.57;;;6.53;;
4278;SDS011;2153;47.744;10.580;2023-05-07T01:37:47;16.70;;;6.57;;
4278;SDS011;2153;47.744;10.580;2023-05-07T01:40:16;15.97;;;5.97;;
4278;SDS011;2153;47.744;10.580;2023-05-07T01:42:44;15.70;;;6.37;;
4278;SDS011;2153;47.744;10.580;2023-05-07T01:45:13;17.67;;;6.10;;
4278;SDS011;2153;47.744;10.580;2023-05-07T01:47:40;17.17;;;6.87;;
4278;SDS011;2153;47.744;10.580;2023-05-07T01:50:07;15.70;;;5.77;;
4278;SDS011;2153;47.744;10.580;2023-05-07T01:52:35;17.13;;;5.57;;
4278;SDS011;2153;47.744;10.580;2023-05-07T01:55:03;18.30;;;5.97;;
4278;SDS011;2153;47.744;10.580;2023-05-07T01:57:33;20.13;;;6.27;;
4278;SDS011;2153;47.744;10.580;2023-05-07T01:59:59;15.97;;;6.20;;
4278;SDS011;2153;47.744;10.580;2023-05-07T02:02:27;15.50;;;5.70;;
4278;SDS011;2153;47.744;10.580;2023-05-07T02:04:54;19.00;;;6.90;;
4278;SDS011;2153;47.744;10.580;2023-05-07T02:07:21;17.30;;;6.67;;
4278;SDS011;2153;47.744;10.580;2023-05-07T02:09:48;15.30;;;5.73;;
4278;SDS011;2153;47.744;10.580;2023-05-07T02:12:14;16.47;;;6.73;;
4278;SDS011;2153;47.744;10.580;2023-05-07T02:14:43;15.57;;;6.10;;
4278;SDS011;2153;47.744;10.580;2023-05-07T02:17:09;15.23;;;5.90;;
4278;SDS011;2153;47.744;10.580;2023-05-07T02:19:36;19.17;;;6.00;;
4278;SDS011;2153;47.744;10.580;2023-05-07T02:22:03;17.07;;;5.83;;
4278;SDS011;2153;47.744;10.580;2023-05-07T02:24:29;17.70;;;6.10;;
4278;SDS011;2153;47.744;10.580;2023-05-07T02:26:56;18.13;;;6.00;;
4278;SDS011;2153;47.744;10.580;2023-05-07T02:29:23;15.70;;;5.70;;
4278;SDS011;2153;47.744;10.580;2023-05-07T02:31:51;17.53;;;6.50;;
4278;SDS011;2153;47.744;10.580;2023-05-07T02:34:18;19.23;;;5.87;;
4278;SDS011;2153;47.744;10.580;2023-05-07T02:36:45;16.60;;;6.07;;
4278;SDS011;2153;47.744;10.580;2023-05-07T02:39:12;20.37;;;5.60;;
4278;SDS011;2153;47.744;10.580;2023-05-07T02:41:38;22.47;;;6.50;;
4278;SDS011;2153;47.744;10.580;2023-05-07T02:44:05;16.13;;;5.70;;
4278;SDS011;2153;47.744;10.580;2023-05-07T02:46:32;16.80;;;5.50;;
4278;SDS011;2153;47.744;10.580;2023-05-07T02:49:00;15.80;;;5.37;;
4278;SDS011;2153;47.744;10.580;2023-05-07T02:51:27;21.03;;;5.70;;
4278;SDS011;2153;47.744;10.580;2023-05-07T02:53:54;19.47;;;6.10;;
4278;SDS011;2153;47.744;10.580;2023-05-07T02:56:20;16.03;;;6.03;;
4278;SDS011;2153;47.744;10.580;2023-05-07T02:58:47;18.80;;;6.70;;
4278;SDS011;2153;47.744;10.580;2023-05-07T03:01:14;15.37;;;5.40;;
4278;SDS011;2153;47.744;10.580;2023-05-07T03:03:40;17.03;;;5.63;;
4278;SDS011;2153;47.744;10.580;2023-05-07T03:06:08;16.17;;;5.63;;
4278;SDS011;2153;47.744;10.580;2023-05-07T03:08:35;16.33;;;5.70;;
4278;SDS011;2153;47.744;10.580;2023-05-07T03:11:02;16.90;;;6.13;;
4278;SDS011;2153;47.744;10.580;2023-05-07T03:13:29;17.77;;;6.30;;
4278;SDS011;2153;47.744;10.580;2023-05-07T03:15:55;20.73;;;7.60;;
4278;SDS011;2153;47.744;10.580;2023-05-07T03:18:22;18.27;;;6.20;;
4278;SDS011;2153;47.744;10.580;2023-05-07T03:20:49;25.07;;;6.17;;
4278;SDS011;2153;47.744;10.580;2023-05-07T03:23:17;19.93;;;6.67;;
4278;SDS011;2153;47.744;10.580;2023-05-07T03:25:44;25.50;;;5.60;;
4278;SDS011;2153;47.744;10.580;2023-05-07T03:28:10;17.23;;;6.13;;
4278;SDS011;2153;47.744;10.580;2023-05-07T03:30:37;16.37;;;5.97;;
4278;SDS011;2153;47.744;10.580;2023-05-07T03:33:04;16.20;;;5.73;;
4278;SDS011;2153;47.744;10.580;2023-05-07T03:35:30;15.10;;;5.30;;
4278;SDS011;2153;47.744;10.580;2023-05-07T03:37:57;16.10;;;5.70;;
4278;SDS011;2153;47.744;10.580;2023-05-07T03:40:25;16.33;;;5.23;;
4278;SDS011;2153;47.744;10.580;2023-05-07T03:42:52;17.20;;;5.53;;
4278;SDS011;2153;47.744;10.580;2023-05-07T03:45:19;16.60;;;6.40;;
4278;SDS011;2153;47.744;10.580;2023-05-07T03:47:46;16.17;;;5.40;;
4278;SDS011;2153;47.744;10.580;2023-05-07T03:50:13;15.40;;;6.30;;
4278;SDS011;2153;47.744;10.580;2023-05-07T03:52:39;23.30;;;5.40;;
4278;SDS011;2153;47.744;10.580;2023-05-07T03:55:06;27.53;;;9.80;;
4278;SDS011;2153;47.744;10.580;2023-05-07T03:57:35;16.37;;;6.43;;
4278;SDS011;2153;47.744;10.580;2023-05-07T04:00:02;16.27;;;5.97;;
4278;SDS011;2153;47.744;10.580;2023-05-07T04:02:31;17.37;;;5.80;;
4278;SDS011;2153;47.744;10.580;2023-05-07T04:04:59;21.73;;;7.23;;
4278;SDS011;2153;47.744;10.580;2023-05-07T04:07:25;16.90;;;5.57;;
4278;SDS011;2153;47.744;10.580;2023-05-07T04:09:52;15.73;;;5.37;;
4278;SDS011;2153;47.744;10.580;2023-05-07T04:12:19;35.40;;;5.37;;
4278;SDS011;2153;47.744;10.580;2023-05-07T04:14:47;14.23;;;4.80;;
4278;SDS011;2153;47.744;10.580;2023-05-07T04:17:13;21.60;;;6.20;;
4278;SDS011;2153;47.744;10.580;2023-05-07T04:19:40;17.53;;;6.40;;
4278;SDS011;2153;47.744;10.580;2023-05-07T04:22:10;15.03;;;5.70;;
4278;SDS011;2153;47.744;10.580;2023-05-07T04:24:36;15.40;;;5.50;;
4278;SDS011;2153;47.744;10.580;2023-05-07T04:27:03;14.40;;;5.00;;
4278;SDS011;2153;47.744;10.580;2023-05-07T04:29:31;14.20;;;4.73;;
4278;SDS011;2153;47.744;10.580;2023-05-07T04:31:59;14.33;;;5.43;;
4278;SDS011;2153;47.744;10.580;2023-05-07T04:34:26;22.60;;;5.33;;
4278;SDS011;2153;47.744;10.580;2023-05-07T04:36:53;16.07;;;5.77;;
4278;SDS011;2153;47.744;10.580;2023-05-07T04:39:19;18.67;;;5.47;;
4278;SDS011;2153;47.744;10.580;2023-05-07T04:41:46;17.00;;;5.37;;
4278;SDS011;2153;47.744;10.580;2023-05-07T04:44:13;16.10;;;4.60;;
4278;SDS011;2153;47.744;10.580;2023-05-07T04:46:39;15.53;;;5.23;;
4278;SDS011;2153;47.744;10.580;2023-05-07T04:49:07;17.07;;;4.87;;
4278;SDS011;2153;47.744;10.580;2023-05-07T04:51:35;16.37;;;5.30;;
4278;SDS011;2153;47.744;10.580;2023-05-07T04:54:03;14.20;;;5.07;;
4278;SDS011;2153;47.744;10.580;2023-05-07T04:56:29;15.20;;;4.90;;
4278;SDS011;2153;47.744;10.580;2023-05-07T04:58:56;14.17;;;4.43;;
4278;SDS011;2153;47.744;10.580;2023-05-07T05:01:23;16.23;;;5.47;;
4278;SDS011;2153;47.744;10.580;2023-05-07T05:03:50;14.43;;;5.07;;
4278;SDS011;2153;47.744;10.580;2023-05-07T05:06:18;15.10;;;5.50;;
4278;SDS011;2153;47.744;10.580;2023-05-07T05:08:44;14.60;;;4.70;;
4278;SDS011;2153;47.744;10.580;2023-05-07T05:11:11;19.87;;;5.80;;
4278;SDS011;2153;47.744;10.580;2023-05-07T05:13:38;15.77;;;5.50;;
4278;SDS011;2153;47.744;10.580;2023-05-07T05:16:05;18.30;;;5.70;;
4278;SDS011;2153;47.744;10.580;2023-05-07T05:18:32;15.50;;;5.43;;
4278;SDS011;2153;47.744;10.580;2023-05-07T05:20:59;15.40;;;5.50;;
4278;SDS011;2153;47.744;10.580;2023-05-07T05:23:27;14.20;;;4.73;;
4278;SDS011;2153;47.744;10.580;2023-05-07T05:25:55;15.13;;;4.93;;
4278;SDS011;2153;47.744;10.580;2023-05-07T05:28:22;17.20;;;5.60;;
4278;SDS011;2153;47.744;10.580;2023-05-07T05:30:49;15.93;;;5.80;;
4278;SDS011;2153;47.744;10.580;2023-05-07T05:33:16;17.67;;;5.43;;
4278;SDS011;2153;47.744;10.580;2023-05-07T05:35:43;17.30;;;6.33;;
4278;SDS011;2153;47.744;10.580;2023-05-07T05:38:10;18.17;;;5.37;;
4278;SDS011;2153;47.744;10.580;2023-05-07T05:40:38;14.73;;;4.40;;
4278;SDS011;2153;47.744;10.580;2023-05-07T05:43:05;14.00;;;4.30;;
4278;SDS011;2153;47.744;10.580;2023-05-07T05:45:32;16.17;;;4.50;;
4278;SDS011;2153;47.744;10.580;2023-05-07T05:47:59;18.03;;;4.60;;
4278;SDS011;2153;47.744;10.580;2023-05-07T05:50:26;15.10;;;4.30;;
4278;SDS011;2153;47.744;10.580;2023-05-07T05:52:52;20.63;;;4.90;;
4278;SDS011;2153;47.744;10.580;2023-05-07T05:55:20;14.30;;;4.40;;
4278;SDS011;2153;47.744;10.580;2023-05-07T05:57:48;15.57;;;5.10;;
4278;SDS011;2153;47.744;10.580;2023-05-07T06:00:15;17.20;;;5.00;;
4278;SDS011;2153;47.744;10.580;2023-05-07T06:02:42;14.80;;;4.70;;
4278;SDS011;2153;47.744;10.580;2023-05-07T06:05:09;15.90;;;5.10;;
4278;SDS011;2153;47.744;10.580;2023-05-07T06:07:35;16.97;;;4.70;;
4278;SDS011;2153;47.744;10.580;2023-05-07T06:10:02;14.10;;;4.33;;
4278;SDS011;2153;47.744;10.580;2023-05-07T06:12:29;13.90;;;4.20;;
4278;SDS011;2153;47.744;10.580;2023-05-07T06:14:57;13.87;;;4.37;;
4278;SDS011;2153;47.744;10.580;2023-05-07T06:17:24;18.17;;;4.43;;
4278;SDS011;2153;47.744;10.580;2023-05-07T06:19:51;15.13;;;3.93;;
4278;SDS011;2153;47.744;10.580;2023-05-07T06:22:18;13.70;;;3.70;;
4278;SDS011;2153;47.744;10.580;2023-05-07T06:24:45;13.90;;;3.30;;
4278;SDS011;2153;47.744;10.580;2023-05-07T06:27:11;15.30;;;3.50;;
4278;SDS011;2153;47.744;10.580;2023-05-07T06:29:38;13.27;;;2.90;;
4278;SDS011;2153;47.744;10.580;2023-05-07T06:32:10;12.90;;;2.93;;
4278;SDS011;2153;47.744;10.580;2023-05-07T06:34:38;16.37;;;2.93;;
4278;SDS011;2153;47.744;10.580;2023-05-07T06:37:05;13.00;;;2.70;;
4278;SDS011;2153;47.744;10.580;2023-05-07T06:39:32;12.73;;;2.47;;
4278;SDS011;2153;47.744;10.580;2023-05-07T06:41:59;13.50;;;2.47;;
4278;SDS011;2153;47.744;10.580;2023-05-07T06:44:26;12.90;;;2.10;;
4278;SDS011;2153;47.744;10.580;2023-05-07T06:46:53;13.43;;;2.60;;
4278;SDS011;2153;47.744;10.580;2023-05-07T06:49:21;13.27;;;2.33;;
4278;SDS011;2153;47.744;10.580;2023-05-07T06:51:48;12.93;;;2.47;;
4278;SDS011;2153;47.744;10.580;2023-05-07T06:54:14;15.07;;;2.30;;
4278;SDS011;2153;47.744;10.580;2023-05-07T06:56:41;15.60;;;2.63;;
4278;SDS011;2153;47.744;10.580;2023-05-07T06:59:08;12.43;;;2.37;;
4278;SDS011;2153;47.744;10.580;2023-05-07T07:01:35;12.60;;;2.27;;
4278;SDS011;2153;47.744;10.580;2023-05-07T07:04:01;16.90;;;2.40;;
4278;SDS011;2153;47.744;10.580;2023-05-07T07:06:29;13.10;;;2.35;;
4278;SDS011;2153;47.744;10.580;2023-05-07T07:08:57;12.70;;;2.20;;
4278;SDS011;2153;47.744;10.580;2023-05-07T07:11:24;13.67;;;2.50;;
4278;SDS011;2153;47.744;10.580;2023-05-07T07:13:50;13.17;;;2.30;;
4278;SDS011;2153;47.744;10.580;2023-05-07T07:16:19;13.07;;;2.10;;
4278;SDS011;2153;47.744;10.580;2023-05-07T07:18:46;13.87;;;1.87;;
4278;SDS011;2153;47.744;10.580;2023-05-07T07:21:12;12.67;;;2.10;;
4278;SDS011;2153;47.744;10.580;2023-05-07T07:23:41;12.40;;;2.13;;
4278;SDS011;2153;47.744;10.580;2023-05-07T07:26:07;12.93;;;2.03;;
4278;SDS011;2153;47.744;10.580;2023-05-07T07:28:34;16.73;;;2.13;;
4278;SDS011;2153;47.744;10.580;2023-05-07T07:31:01;12.27;;;2.33;;
4278;SDS011;2153;47.744;10.580;2023-05-07T07:33:28;12.33;;;1.90;;
4278;SDS011;2153;47.744;10.580;2023-05-07T07:35:55;15.23;;;2.10;;
4278;SDS011;2153;47.744;10.580;2023-05-07T07:38:21;14.70;;;2.53;;
4278;SDS011;2153;47.744;10.580;2023-05-07T07:40:49;12.70;;;2.30;;
4278;SDS011;2153;47.744;10.580;2023-05-07T07:43:16;14.27;;;2.30;;
4278;SDS011;2153;47.744;10.580;2023-05-07T07:45:43;11.90;;;2.30;;
4278;SDS011;2153;47.744;10.580;2023-05-07T07:48:10;13.00;;;2.53;;
4278;SDS011;2153;47.744;10.580;2023-05-07T07:50:37;12.10;;;2.10;;
4278;SDS011;2153;47.744;10.580;2023-05-07T07:53:04;18.63;;;2.67;;
4278;SDS011;2153;47.744;10.580;2023-05-07T07:55:31;12.10;;;2.20;;
4278;SDS011;2153;47.744;10.580;2023-05-07T07:57:59;11.80;;;2.30;;
4278;SDS011;2153;47.744;10.580;2023-05-07T08:00:26;15.63;;;2.50;;
4278;SDS011;2153;47.744;10.580;2023-05-07T08:02:53;15.27;;;2.77;;
4278;SDS011;2153;47.744;10.580;2023-05-07T08:05:19;14.07;;;3.07;;
4278;SDS011;2153;47.744;10.580;2023-05-07T08:07:47;12.70;;;2.50;;
4278;SDS011;2153;47.744;10.580;2023-05-07T08:10:16;14.40;;;2.63;;
4278;SDS011;2153;47.744;10.580;2023-05-07T08:12:46;12.57;;;2.60;;
4278;SDS011;2153;47.744;10.580;2023-05-07T08:15:14;17.23;;;2.33;;
4278;SDS011;2153;47.744;10.580;2023-05-07T08:17:41;16.97;;;2.50;;
4278;SDS011;2153;47.744;10.580;2023-05-07T08:20:08;12.50;;;2.63;;
4278;SDS011;2153;47.744;10.580;2023-05-07T08:22:36;11.80;;;2.07;;
4278;SDS011;2153;47.744;10.580;2023-05-07T08:25:03;15.23;;;2.50;;
4278;SDS011;2153;47.744;10.580;2023-05-07T08:27:30;12.57;;;2.30;;
4278;SDS011;2153;47.744;10.580;2023-05-07T08:29:56;13.20;;;2.90;;
4278;SDS011;2153;47.744;10.580;2023-05-07T08:32:25;12.00;;;2.67;;
4278;SDS011;2153;47.744;10.580;2023-05-07T08:34:52;13.10;;;2.40;;
4278;SDS011;2153;47.744;10.580;2023-05-07T08:37:20;13.63;;;2.43;;
4278;SDS011;2153;47.744;10.580;2023-05-07T08:39:46;13.97;;;2.83;;
4278;SDS011;2153;47.744;10.580;2023-05-07T08:42:13;12.03;;;2.30;;
4278;SDS011;2153;47.744;10.580;2023-05-07T08:44:42;15.63;;;2.43;;
4278;SDS011;2153;47.744;10.580;2023-05-07T08:47:11;16.77;;;3.50;;
4278;SDS011;2153;47.744;10.580;2023-05-07T08:49:40;12.67;;;2.70;;
4278;SDS011;2153;47.744;10.580;2023-05-07T08:52:07;11.70;;;2.50;;
4278;SDS011;2153;47.744;10.580;2023-05-07T08:54:33;13.80;;;2.23;;
4278;SDS011;2153;47.744;10.580;2023-05-07T08:57:03;13.33;;;2.90;;
4278;SDS011;2153;47.744;10.580;2023-05-07T08:59:30;11.20;;;2.20;;
4278;SDS011;2153;47.744;10.580;2023-05-07T09:01:57;11.40;;;2.10;;
4278;SDS011;2153;47.744;10.580;2023-05-07T09:04:23;14.33;;;2.37;;
4278;SDS011;2153;47.744;10.580;2023-05-07T09:06:52;12.53;;;2.20;;
4278;SDS011;2153;47.744;10.580;2023-05-07T09:09:18;17.13;;;2.43;;
4278;SDS011;2153;47.744;10.580;2023-05-07T09:11:47;11.40;;;2.20;;
4278;SDS011;2153;47.744;10.580;2023-05-07T09:14:14;12.00;;;2.10;;
4278;SDS011;2153;47.744;10.580;2023-05-07T09:16:41;13.90;;;2.07;;
4278;SDS011;2153;47.744;10.580;2023-05-07T09:19:07;11.70;;;1.90;;
4278;SDS011;2153;47.744;10.580;2023-05-07T09:21:34;12.60;;;2.07;;
4278;SDS011;2153;47.744;10.580;2023-05-07T09:24:03;13.83;;;2.47;;
4278;SDS011;2153;47.744;10.580;2023-05-07T09:26:30;21.63;;;2.00;;
4278;SDS011;2153;47.744;10.580;2023-05-07T09:31:24;13.73;;;1.80;;
4278;SDS011;2153;47.744;10.580;2023-05-07T09:33:52;13.00;;;2.17;;
4278;SDS011;2153;47.744;10.580;2023-05-07T09:36:20;12.30;;;1.77;;
4278;SDS011;2153;47.744;10.580;2023-05-07T09:38:47;13.20;;;1.80;;
4278;SDS011;2153;47.744;10.580;2023-05-07T09:41:16;11.20;;;1.60;;
4278;SDS011;2153;47.744;10.580;2023-05-07T09:43:43;13.30;;;2.20;;
4278;SDS011;2153;47.744;10.580;2023-05-07T09:46:11;15.00;;;1.47;;
4278;SDS011;2153;47.744;10.580;2023-05-07T09:48:39;11.60;;;1.30;;
4278;SDS011;2153;47.744;10.580;2023-05-07T09:51:11;10.90;;;1.50;;
4278;SDS011;2153;47.744;10.580;2023-05-07T09:53:44;12.93;;;1.77;;
4278;SDS011;2153;47.744;10.580;2023-05-07T09:56:12;11.15;;;1.65;;
4278;SDS011;2153;47.744;10.580;2023-05-07T09:58:41;12.60;;;1.60;;
4278;SDS011;2153;47.744;10.580;2023-05-07T10:01:10;10.90;;;1.47;;
4278;SDS011;2153;47.744;10.580;2023-05-07T10:03:38;12.50;;;1.40;;
4278;SDS011;2153;47.744;10.580;2023-05-07T10:06:06;10.77;;;1.60;;
4278;SDS011;2153;47.744;10.580;2023-05-07T10:08:35;16.20;;;1.90;;
4278;SDS011;2153;47.744;10.580;2023-05-07T10:11:03;17.13;;;1.70;;
4278;SDS011;2153;47.744;10.580;2023-05-07T10:13:30;10.87;;;1.60;;
4278;SDS011;2153;47.744;10.580;2023-05-07T10:15:59;16.20;;;1.67;;
4278;SDS011;2153;47.744;10.580;2023-05-07T10:18:26;10.83;;;1.70;;
4278;SDS011;2153;47.744;10.580;2023-05-07T10:20:54;10.73;;;1.87;;
4278;SDS011;2153;47.744;10.580;2023-05-07T10:23:29;10.80;;;1.70;;
4278;SDS011;2153;47.744;10.580;2023-05-07T10:25:58;12.63;;;1.53;;
4278;SDS011;2153;47.744;10.580;2023-05-07T10:28:27;12.93;;;1.93;;
4278;SDS011;2153;47.744;10.580;2023-05-07T10:31:01;12.60;;;1.93;;
4278;SDS011;2153;47.744;10.580;2023-05-07T10:33:45;11.17;;;1.70;;
4278;SDS011;2153;47.744;10.580;2023-05-07T10:36:15;13.60;;;1.90;;
4278;SDS011;2153;47.744;10.580;2023-05-07T10:38:42;15.00;;;1.80;;
4278;SDS011;2153;47.744;10.580;2023-05-07T10:41:09;10.93;;;1.63;;
4278;SDS011;2153;47.744;10.580;2023-05-07T10:43:40;11.20;;;1.80;;
4278;SDS011;2153;47.744;10.580;2023-05-07T10:46:13;11.67;;;1.90;;
4278;SDS011;2153;47.744;10.580;2023-05-07T10:51:33;11.50;;;1.90;;
4278;SDS011;2153;47.744;10.580;2023-05-07T10:56:48;16.00;;;2.00;;
4278;SDS011;2153;47.744;10.580;2023-05-07T10:59:34;11.50;;;1.80;;
4278;SDS011;2153;47.744;10.580;2023-05-07T11:02:09;12.40;;;1.60;;
4278;SDS011;2153;47.744;10.580;2023-05-07T11:04:39;10.77;;;1.80;;
4278;SDS011;2153;47.744;10.580;2023-05-07T11:07:21;13.10;;;2.00;;
4278;SDS011;2153;47.744;10.580;2023-05-07T11:09:54;10.87;;;1.83;;
4278;SDS011;2153;47.744;10.580;2023-05-07T11:15:33;13.10;;;1.93;;
4278;SDS011;2153;47.744;10.580;2023-05-07T11:18:03;10.60;;;1.40;;
4278;SDS011;2153;47.744;10.580;2023-05-07T11:20:44;17.60;;;2.37;;
4278;SDS011;2153;47.744;10.580;2023-05-07T11:26:23;17.40;;;1.90;;
4278;SDS011;2153;47.744;10.580;2023-05-07T11:36:15;12.77;;;2.50;;
4278;SDS011;2153;47.744;10.580;2023-05-07T11:38:42;12.77;;;2.10;;
4278;SDS011;2153;47.744;10.580;2023-05-07T11:41:09;11.50;;;2.20;;
4278;SDS011;2153;47.744;10.580;2023-05-07T11:43:35;12.27;;;2.90;;
4278;SDS011;2153;47.744;10.580;2023-05-07T11:46:05;11.83;;;1.87;;
4278;SDS011;2153;47.744;10.580;2023-05-07T11:48:34;13.97;;;1.90;;
4278;SDS011;2153;47.744;10.580;2023-05-07T11:51:03;11.63;;;1.80;;
4278;SDS011;2153;47.744;10.580;2023-05-07T11:53:35;12.13;;;2.00;;
4278;SDS011;2153;47.744;10.580;2023-05-07T11:56:05;13.77;;;1.60;;
4278;SDS011;2153;47.744;10.580;2023-05-07T11:58:33;14.07;;;1.97;;
4278;SDS011;2153;47.744;10.580;2023-05-07T12:01:00;10.70;;;1.83;;
4278;SDS011;2153;47.744;10.580;2023-05-07T12:03:27;13.20;;;1.90;;
4278;SDS011;2153;47.744;10.580;2023-05-07T12:05:53;12.03;;;2.50;;
4278;SDS011;2153;47.744;10.580;2023-05-07T12:08:21;12.03;;;1.70;;
4278;SDS011;2153;47.744;10.580;2023-05-07T12:10:49;13.57;;;2.33;;
4278;SDS011;2153;47.744;10.580;2023-05-07T12:13:16;12.20;;;2.40;;
4278;SDS011;2153;47.744;10.580;2023-05-07T12:15:43;12.40;;;2.20;;
4278;SDS011;2153;47.744;10.580;2023-05-07T12:18:10;15.40;;;1.80;;
4278;SDS011;2153;47.744;10.580;2023-05-07T12:20:37;11.60;;;1.73;;
4278;SDS011;2153;47.744;10.580;2023-05-07T12:23:05;12.70;;;1.73;;
4278;SDS011;2153;47.744;10.580;2023-05-07T12:25:33;21.50;;;2.20;;
4278;SDS011;2153;47.744;10.580;2023-05-07T12:28:01;15.43;;;2.10;;
4278;SDS011;2153;47.744;10.580;2023-05-07T12:30:29;14.65;;;2.10;;
4278;SDS011;2153;47.744;10.580;2023-05-07T12:32:56;12.80;;;1.73;;
4278;SDS011;2153;47.744;10.580;2023-05-07T12:35:26;11.50;;;1.87;;
4278;SDS011;2153;47.744;10.580;2023-05-07T12:37:57;11.33;;;2.00;;
4278;SDS011;2153;47.744;10.580;2023-05-07T12:40:36;12.20;;;1.97;;
4278;SDS011;2153;47.744;10.580;2023-05-07T12:43:04;13.90;;;2.40;;
4278;SDS011;2153;47.744;10.580;2023-05-07T12:45:30;16.53;;;2.10;;
4278;SDS011;2153;47.744;10.580;2023-05-07T12:48:00;14.10;;;2.30;;
4278;SDS011;2153;47.744;10.580;2023-05-07T12:50:30;15.80;;;2.63;;
4278;SDS011;2153;47.744;10.580;2023-05-07T12:52:58;11.40;;;1.93;;
4278;SDS011;2153;47.744;10.580;2023-05-07T12:55:25;12.37;;;2.23;;
4278;SDS011;2153;47.744;10.580;2023-05-07T12:57:53;12.03;;;2.10;;
4278;SDS011;2153;47.744;10.580;2023-05-07T13:00:32;12.30;;;2.20;;
4278;SDS011;2153;47.744;10.580;2023-05-07T13:02:59;13.03;;;2.17;;
4278;SDS011;2153;47.744;10.580;2023-05-07T13:05:26;11.97;;;2.10;;
4278;SDS011;2153;47.744;10.580;2023-05-07T13:07:53;13.27;;;2.67;;
4278;SDS011;2153;47.744;10.580;2023-05-07T13:10:21;12.97;;;2.40;;
4278;SDS011;2153;47.744;10.580;2023-05-07T13:12:48;15.60;;;3.17;;
4278;SDS011;2153;47.744;10.580;2023-05-07T13:15:16;14.90;;;2.60;;
4278;SDS011;2153;47.744;10.580;2023-05-07T13:17:43;13.07;;;2.80;;
4278;SDS011;2153;47.744;10.580;2023-05-07T13:20:10;15.23;;;3.13;;
4278;SDS011;2153;47.744;10.580;2023-05-07T13:22:37;12.00;;;2.40;;
4278;SDS011;2153;47.744;10.580;2023-05-07T13:25:05;12.60;;;2.50;;
4278;SDS011;2153;47.744;10.580;2023-05-07T13:27:32;13.03;;;2.50;;
4278;SDS011;2153;47.744;10.580;2023-05-07T13:30:01;14.20;;;2.50;;
4278;SDS011;2153;47.744;10.580;2023-05-07T13:32:30;13.80;;;2.80;;
4278;SDS011;2153;47.744;10.580;2023-05-07T13:34:57;14.67;;;2.70;;
4278;SDS011;2153;47.744;10.580;2023-05-07T13:37:24;12.90;;;2.47;;
4278;SDS011;2153;47.744;10.580;2023-05-07T13:39:50;15.10;;;2.43;;
4278;SDS011;2153;47.744;10.580;2023-05-07T13:42:17;13.00;;;2.50;;
4278;SDS011;2153;47.744;10.580;2023-05-07T13:44:44;13.67;;;2.47;;
4278;SDS011;2153;47.744;10.580;2023-05-07T13:47:11;14.20;;;2.60;;
4278;SDS011;2153;47.744;10.580;2023-05-07T13:49:39;12.83;;;2.10;;
4278;SDS011;2153;47.744;10.580;2023-05-07T13:52:05;12.40;;;1.70;;
4278;SDS011;2153;47.744;10.580;2023-05-07T13:54:32;13.60;;;1.90;;
4278;SDS011;2153;47.744;10.580;2023-05-07T13:56:59;12.60;;;1.70;;
4278;SDS011;2153;47.744;10.580;2023-05-07T13:59:26;12.87;;;2.17;;
4278;SDS011;2153;47.744;10.580;2023-05-07T14:01:53;12.40;;;1.90;;
4278;SDS011;2153;47.744;10.580;2023-05-07T14:04:20;12.47;;;2.10;;
4278;SDS011;2153;47.744;10.580;2023-05-07T14:06:49;11.07;;;1.23;;
4278;SDS011;2153;47.744;10.580;2023-05-07T14:09:15;10.80;;;1.20;;
4278;SDS011;2153;47.744;10.580;2023-05-07T14:11:42;11.70;;;1.37;;
4278;SDS011;2153;47.744;10.580;2023-05-07T14:14:09;11.27;;;1.53;;
4278;SDS011;2153;47.744;10.580;2023-05-07T14:16:36;11.20;;;1.30;;
4278;SDS011;2153;47.744;10.580;2023-05-07T14:19:03;12.37;;;1.20;;
4278;SDS011;2153;47.744;10.580;2023-05-07T14:21:30;16.33;;;1.30;;
4278;SDS011;2153;47.744;10.580;2023-05-07T14:23:58;14.30;;;1.40;;
4278;SDS011;2153;47.744;10.580;2023-05-07T14:26:25;10.87;;;1.00;;
4278;SDS011;2153;47.744;10.580;2023-05-07T14:28:53;11.40;;;1.30;;
4278;SDS011;2153;47.744;10.580;2023-05-07T14:31:22;10.90;;;1.20;;
4278;SDS011;2153;47.744;10.580;2023-05-07T14:33:49;10.90;;;1.27;;
4278;SDS011;2153;47.744;10.580;2023-05-07T14:36:15;13.60;;;1.40;;
4278;SDS011;2153;47.744;10.580;2023-05-07T14:38:42;13.30;;;1.37;;
4278;SDS011;2153;47.744;10.580;2023-05-07T14:41:11;11.23;;;1.17;;
4278;SDS011;2153;47.744;10.580;2023-05-07T14:43:38;12.53;;;1.13;;
4278;SDS011;2153;47.744;10.580;2023-05-07T14:46:04;13.10;;;1.20;;
4278;SDS011;2153;47.744;10.580;2023-05-07T14:48:31;16.63;;;1.20;;
4278;SDS011;2153;47.744;10.580;2023-05-07T14:50:58;11.13;;;1.30;;
4278;SDS011;2153;47.744;10.580;2023-05-07T14:53:24;15.47;;;1.30;;
4278;SDS011;2153;47.744;10.580;2023-05-07T14:55:51;11.77;;;1.10;;
4278;SDS011;2153;47.744;10.580;2023-05-07T14:58:19;11.70;;;1.43;;
4278;SDS011;2153;47.744;10.580;2023-05-07T15:00:46;12.30;;;1.43;;
4278;SDS011;2153;47.744;10.580;2023-05-07T15:03:13;10.97;;;1.20;;
4278;SDS011;2153;47.744;10.580;2023-05-07T15:05:40;12.33;;;1.37;;
4278;SDS011;2153;47.744;10.580;2023-05-07T15:08:07;12.20;;;1.30;;
4278;SDS011;2153;47.744;10.580;2023-05-07T15:10:35;12.03;;;1.30;;
4278;SDS011;2153;47.744;10.580;2023-05-07T15:13:05;11.00;;;1.10;;